createdAt,value
2022-10-26T00:01:14.357Z,1.00
2022-10-26T00:03:43.127Z,1.00
2022-10-26T00:06:11.585Z,1.00
2022-10-26T00:08:38.946Z,99.90
2022-10-26T00:11:09.485Z,99.90
2022-10-26T00:13:37.539Z,99.90
2022-10-26T00:16:13.910Z,99.90
2022-10-26T00:18:41.354Z,99.90
2022-10-26T00:21:10.448Z,99.90
2022-10-26T00:23:38.086Z,99.90
2022-10-26T00:26:05.965Z,99.90
2022-10-26T00:28:33.310Z,99.90
2022-10-26T00:31:06.132Z,99.90
2022-10-26T00:33:33.606Z,99.90
2022-10-26T00:36:01.084Z,99.90
2022-10-26T00:38:28.644Z,99.90
2022-10-26T00:43:28.055Z,1.00
2022-10-26T00:45:57.245Z,1.00
2022-10-26T00:48:35.382Z,1.00
2022-10-26T00:51:21.003Z,1.00
2022-10-26T00:53:48.693Z,1.00
2022-10-26T00:56:16.407Z,1.00
2022-10-26T00:58:44.313Z,1.00
2022-10-26T01:01:11.662Z,1.00
2022-10-26T01:03:39.674Z,1.00
2022-10-26T01:06:07.976Z,1.00
2022-10-26T01:08:35.394Z,1.00
2022-10-26T01:11:03.950Z,1.00
2022-10-26T01:13:34.254Z,1.00
2022-10-26T01:16:20.463Z,1.00
2022-10-26T01:18:53.624Z,1.00
2022-10-26T01:21:37.250Z,1.00
2022-10-26T01:24:10.496Z,1.00
2022-10-26T01:26:40.379Z,1.00
2022-10-26T01:29:29.023Z,1.00
2022-10-26T01:32:12.858Z,1.00
2022-10-26T01:35:09.362Z,1.00
2022-10-26T01:37:43.427Z,1.00
2022-10-26T01:40:16.112Z,1.00
2022-10-26T01:42:48.310Z,1.00
2022-10-26T01:45:16.868Z,1.00
2022-10-26T01:47:46.038Z,1.00
2022-10-26T01:50:13.887Z,1.00
2022-10-26T01:52:41.258Z,1.00
2022-10-26T01:55:41.406Z,1.00
2022-10-26T01:58:42.832Z,1.00
2022-10-26T02:01:34.116Z,1.00
2022-10-26T02:04:20.878Z,1.00
2022-10-26T02:07:12.375Z,1.00
2022-10-26T02:09:42.500Z,1.00
2022-10-26T02:12:23.043Z,1.00
2022-10-26T02:14:57.936Z,1.00
2022-10-26T02:17:33.757Z,1.00
2022-10-26T02:20:05.610Z,1.00
2022-10-26T02:22:38.244Z,1.00
2022-10-26T02:25:09.897Z,1.00
2022-10-26T02:27:42.204Z,1.00
2022-10-26T02:30:11.168Z,1.00
2022-10-26T02:32:42.245Z,1.00
2022-10-26T02:35:11.657Z,1.00
2022-10-26T02:37:40.863Z,1.00
2022-10-26T02:40:13.442Z,1.00
2022-10-26T02:42:45.337Z,1.00
2022-10-26T02:45:18.593Z,1.00
2022-10-26T02:47:45.850Z,1.00
2022-10-26T02:50:13.571Z,1.00
2022-10-26T02:52:53.468Z,1.00
2022-10-26T02:55:25.732Z,1.00
2022-10-26T02:57:57.471Z,1.00
2022-10-26T03:00:25.078Z,1.00
2022-10-26T03:02:58.090Z,1.00
2022-10-26T03:05:32.559Z,1.00
2022-10-26T03:08:00.555Z,1.00
2022-10-26T03:10:27.754Z,1.00
2022-10-26T03:12:55.214Z,6.40
2022-10-26T03:15:22.390Z,1.00
2022-10-26T03:17:49.580Z,1.00
2022-10-26T03:20:17.042Z,1.00
2022-10-26T03:22:44.205Z,1.00
2022-10-26T03:25:11.487Z,1.00
2022-10-26T03:27:38.987Z,1.00
2022-10-26T03:30:06.767Z,1.00
2022-10-26T03:32:34.123Z,1.00
2022-10-26T03:35:01.291Z,1.00
2022-10-26T03:37:29.290Z,1.00
2022-10-26T03:39:56.535Z,1.00
2022-10-26T03:42:23.644Z,1.00
2022-10-26T03:44:50.799Z,1.00
2022-10-26T03:47:49.246Z,1.00
2022-10-26T03:50:19.279Z,1.00
2022-10-26T03:52:48.232Z,1.00
2022-10-26T03:55:16.232Z,1.00
2022-10-26T03:57:44.648Z,1.00
2022-10-26T04:00:17.445Z,1.00
2022-10-26T04:02:51.910Z,1.00
2022-10-26T04:05:19.533Z,1.00
2022-10-26T04:07:56.582Z,99.90
2022-10-26T04:10:24.858Z,99.90
2022-10-26T04:12:52.507Z,99.90
2022-10-26T04:15:20.452Z,99.90
2022-10-26T04:17:48.367Z,99.90
2022-10-26T04:20:15.859Z,99.90
2022-10-26T04:22:43.018Z,99.90
2022-10-26T04:25:11.421Z,99.90
2022-10-26T04:27:38.539Z,99.90
2022-10-26T04:30:09.942Z,99.90
2022-10-26T04:32:37.337Z,99.90
2022-10-26T04:35:04.823Z,99.90
2022-10-26T04:37:32.059Z,99.90
2022-10-26T04:39:59.279Z,99.90
2022-10-26T04:42:26.461Z,99.90
2022-10-26T04:44:53.575Z,99.90
2022-10-26T04:47:20.654Z,99.90
2022-10-26T04:49:47.957Z,99.90
2022-10-26T04:52:33.360Z,99.90
2022-10-26T04:55:00.921Z,99.90
2022-10-26T04:57:28.636Z,99.90
2022-10-26T04:59:55.931Z,99.90
2022-10-26T05:02:23.268Z,99.90
2022-10-26T05:04:50.721Z,99.90
2022-10-26T05:07:17.819Z,99.90
2022-10-26T05:09:45.175Z,99.90
2022-10-26T05:12:15.110Z,99.90
2022-10-26T05:14:42.351Z,99.90
2022-10-26T05:17:09.487Z,99.90
2022-10-26T05:19:36.684Z,99.90
2022-10-26T05:22:06.595Z,99.90
2022-10-26T05:24:33.748Z,99.90
2022-10-26T05:27:03.837Z,99.90
2022-10-26T05:29:30.983Z,99.90
2022-10-26T05:32:01.003Z,99.90
2022-10-26T05:34:28.163Z,99.90
2022-10-26T05:36:55.272Z,99.90
2022-10-26T05:39:22.744Z,99.90
2022-10-26T05:41:52.919Z,99.90
2022-10-26T05:44:20.033Z,99.90
2022-10-26T05:46:47.522Z,99.90
2022-10-26T05:49:15.819Z,99.90
2022-10-26T05:51:43.002Z,99.90
2022-10-26T05:54:13.612Z,99.90
2022-10-26T05:56:41.945Z,99.90
2022-10-26T05:59:15.125Z,99.90
2022-10-26T06:02:00.885Z,99.90
2022-10-26T06:04:41.562Z,99.90
2022-10-26T06:07:14.338Z,99.90
2022-10-26T06:09:42.611Z,99.90
2022-10-26T06:12:12.637Z,99.90
2022-10-26T06:14:42.904Z,99.90
2022-10-26T06:17:31.918Z,99.90
2022-10-26T06:20:08.723Z,99.90
2022-10-26T06:22:50.408Z,99.90
2022-10-26T06:25:39.000Z,99.90
2022-10-26T06:28:27.712Z,99.90
2022-10-26T06:30:56.322Z,99.90
2022-10-26T06:33:29.324Z,99.90
2022-10-26T06:36:20.138Z,99.90
2022-10-26T06:38:49.690Z,99.90
2022-10-26T06:41:19.381Z,99.90
2022-10-26T06:43:46.915Z,99.90
2022-10-26T06:46:39.080Z,99.90
2022-10-26T06:49:12.196Z,99.90
2022-10-26T06:52:08.510Z,99.90
2022-10-26T06:54:53.235Z,99.90
2022-10-26T06:57:23.027Z,97.30
2022-10-26T06:59:53.771Z,94.60
2022-10-26T07:02:21.310Z,93.80
2022-10-26T07:04:48.763Z,92.20
2022-10-26T07:07:21.916Z,89.40
2022-10-26T07:09:49.437Z,87.60
2022-10-26T07:12:16.849Z,82.80
2022-10-26T07:14:44.819Z,76.90
2022-10-26T07:17:12.406Z,75.70
2022-10-26T07:19:40.616Z,75.20
2022-10-26T07:22:07.827Z,74.20
2022-10-26T07:24:34.963Z,73.50
2022-10-26T07:27:02.409Z,71.20
2022-10-26T07:29:29.720Z,67.70
2022-10-26T07:31:56.886Z,64.00
2022-10-26T07:34:24.323Z,64.20
2022-10-26T07:36:51.794Z,63.50
2022-10-26T07:39:19.009Z,63.60
2022-10-26T07:41:47.250Z,62.20
2022-10-26T07:44:17.339Z,64.40
2022-10-26T07:46:45.011Z,64.90
2022-10-26T07:49:12.973Z,64.40
2022-10-26T07:51:40.838Z,64.10
2022-10-26T07:54:10.752Z,63.40
2022-10-26T07:56:37.974Z,61.40
2022-10-26T07:59:05.182Z,60.40
2022-10-26T08:01:32.529Z,59.50
2022-10-26T08:03:59.894Z,58.20
2022-10-26T08:06:27.012Z,56.60
2022-10-26T08:08:54.217Z,55.60
2022-10-26T08:11:21.660Z,54.20
2022-10-26T08:13:53.216Z,54.30
2022-10-26T08:16:20.955Z,51.80
2022-10-26T08:18:50.266Z,51.80
2022-10-26T08:21:22.217Z,51.10
2022-10-26T08:24:02.833Z,51.50
2022-10-26T08:26:30.704Z,52.30
2022-10-26T08:28:57.869Z,53.10
2022-10-26T08:31:25.064Z,53.10
2022-10-26T08:33:52.198Z,52.90
2022-10-26T08:36:28.610Z,52.00
2022-10-26T08:38:55.901Z,51.60
2022-10-26T08:41:42.267Z,50.40
2022-10-26T08:44:21.413Z,48.60
2022-10-26T08:46:53.538Z,48.50
2022-10-26T08:49:25.350Z,47.80
2022-10-26T08:51:59.772Z,48.10
2022-10-26T08:54:50.852Z,48.30
2022-10-26T08:57:41.391Z,46.70
2022-10-26T09:00:15.235Z,45.60
2022-10-26T09:02:42.498Z,45.00
2022-10-26T09:05:18.726Z,45.90
2022-10-26T09:08:00.166Z,46.70
2022-10-26T09:11:08.485Z,66.00
2022-10-26T09:14:00.052Z,45.00
2022-10-26T09:17:04.998Z,46.90
2022-10-26T09:19:50.578Z,47.20
2022-10-26T09:22:37.972Z,47.30
2022-10-26T09:25:27.335Z,45.70
2022-10-26T09:28:01.199Z,47.00
2022-10-26T09:30:30.404Z,47.60
2022-10-26T09:33:08.938Z,47.40
2022-10-26T09:36:17.221Z,47.20
2022-10-26T09:39:03.187Z,45.80
2022-10-26T09:41:39.092Z,46.30
2022-10-26T09:44:09.082Z,47.00
2022-10-26T09:46:45.093Z,45.90
2022-10-26T09:49:15.304Z,44.80
2022-10-26T09:51:45.122Z,46.20
2022-10-26T09:54:18.269Z,43.60
2022-10-26T09:56:49.733Z,43.70
2022-10-26T09:59:21.328Z,45.10
2022-10-26T10:01:48.569Z,44.00
2022-10-26T10:04:26.017Z,44.60
2022-10-26T10:07:15.633Z,43.60
2022-10-26T10:09:42.850Z,45.80
2022-10-26T10:12:20.613Z,46.60
2022-10-26T10:14:59.095Z,46.90
2022-10-26T10:17:27.102Z,46.70
2022-10-26T10:19:54.777Z,45.90
2022-10-26T10:22:25.816Z,44.60
2022-10-26T10:24:57.073Z,45.90
2022-10-26T10:27:25.219Z,46.30
2022-10-26T10:30:01.362Z,47.80
2022-10-26T10:32:35.717Z,47.80
2022-10-26T10:35:24.014Z,47.30
2022-10-26T10:37:51.995Z,48.50
2022-10-26T10:40:25.576Z,48.50
2022-10-26T10:43:02.757Z,48.70
2022-10-26T10:45:31.291Z,50.40
2022-10-26T10:48:22.494Z,47.50
2022-10-26T10:50:59.478Z,49.00
2022-10-26T10:53:26.596Z,48.10
2022-10-26T10:56:04.447Z,50.50
2022-10-26T10:58:47.447Z,50.30
2022-10-26T11:01:20.915Z,48.10
2022-10-26T11:04:09.942Z,49.30
2022-10-26T11:06:40.782Z,47.90
2022-10-26T11:09:09.908Z,48.40
2022-10-26T11:11:46.076Z,49.80
2022-10-26T11:14:25.204Z,48.20
2022-10-26T11:17:26.072Z,47.10
2022-10-26T11:20:03.578Z,46.60
2022-10-26T11:22:40.615Z,47.00
2022-10-26T11:25:28.408Z,46.60
2022-10-26T11:28:00.830Z,43.60
2022-10-26T11:30:30.741Z,63.10
2022-10-26T11:33:03.619Z,43.60
2022-10-26T11:35:37.676Z,42.80
2022-10-26T11:38:27.960Z,43.70
2022-10-26T11:41:27.009Z,46.00
2022-10-26T11:44:03.567Z,44.50
2022-10-26T11:47:08.381Z,45.60
2022-10-26T11:49:42.603Z,45.00
2022-10-26T11:52:18.331Z,44.70
2022-10-26T11:54:53.355Z,45.20
2022-10-26T11:57:23.551Z,46.50
2022-10-26T12:00:03.935Z,44.80
2022-10-26T12:02:33.883Z,45.30
2022-10-26T12:05:08.691Z,44.90
2022-10-26T12:07:40.347Z,45.50
2022-10-26T12:10:24.606Z,45.50
2022-10-26T12:12:59.944Z,45.20
2022-10-26T12:16:03.627Z,45.60
2022-10-26T12:18:54.598Z,45.60
2022-10-26T12:21:29.161Z,45.80
2022-10-26T12:23:59.525Z,44.90
2022-10-26T12:26:26.654Z,45.50
2022-10-26T12:29:02.877Z,47.50
2022-10-26T12:31:33.620Z,44.70
2022-10-26T12:34:01.158Z,45.20
2022-10-26T12:36:56.054Z,45.20
2022-10-26T12:39:42.722Z,43.70
2022-10-26T12:42:28.850Z,45.20
2022-10-26T12:44:58.964Z,43.10
2022-10-26T12:47:29.180Z,43.70
2022-10-26T12:50:23.272Z,44.20
2022-10-26T12:52:57.356Z,42.70
2022-10-26T12:55:46.203Z,41.70
2022-10-26T12:58:41.580Z,39.50
2022-10-26T13:01:32.630Z,38.70
2022-10-26T13:04:15.295Z,37.80
2022-10-26T13:06:55.231Z,38.50
2022-10-26T13:09:27.683Z,36.50
2022-10-26T13:11:57.359Z,36.50
2022-10-26T13:14:35.090Z,35.80
2022-10-26T13:17:05.653Z,34.60
2022-10-26T13:19:45.026Z,36.40
2022-10-26T13:22:22.181Z,36.00
2022-10-26T13:24:54.346Z,35.60
2022-10-26T13:27:40.776Z,34.60
2022-10-26T13:30:34.747Z,36.90
2022-10-26T13:33:04.080Z,35.90
2022-10-26T13:35:31.965Z,38.50
2022-10-26T13:38:08.084Z,39.30
2022-10-26T13:40:38.274Z,40.00
2022-10-26T13:43:11.755Z,39.40
2022-10-26T13:45:50.685Z,40.40
2022-10-26T13:48:33.484Z,40.20
2022-10-26T13:51:05.367Z,39.40
2022-10-26T13:53:54.466Z,41.10
2022-10-26T13:56:22.003Z,39.90
2022-10-26T13:59:09.818Z,42.80
2022-10-26T14:01:37.152Z,42.20
2022-10-26T14:04:18.661Z,42.00
2022-10-26T14:06:51.682Z,41.70
2022-10-26T14:09:21.678Z,41.30
2022-10-26T14:12:01.913Z,40.60
2022-10-26T14:14:33.472Z,38.20
2022-10-26T14:17:01.572Z,36.40
2022-10-26T14:19:31.170Z,34.80
2022-10-26T14:21:59.032Z,33.60
2022-10-26T14:24:46.105Z,33.90
2022-10-26T14:27:18.317Z,32.90
2022-10-26T14:29:49.936Z,32.80
2022-10-26T14:32:36.758Z,32.50
2022-10-26T14:35:04.059Z,31.20
2022-10-26T14:37:31.316Z,30.80
2022-10-26T14:39:58.757Z,29.90
2022-10-26T14:42:39.784Z,29.00
2022-10-26T14:45:29.501Z,29.00
2022-10-26T14:47:57.556Z,27.90
2022-10-26T14:50:31.163Z,28.50
2022-10-26T14:53:02.478Z,27.00
2022-10-26T14:55:31.034Z,28.00
2022-10-26T14:58:16.786Z,27.00
2022-10-26T15:00:44.835Z,28.20
2022-10-26T15:03:17.414Z,30.30
2022-10-26T15:05:44.795Z,31.80
2022-10-26T15:09:00.407Z,31.10
2022-10-26T15:11:29.268Z,31.80
2022-10-26T15:13:58.150Z,32.50
2022-10-26T15:16:32.128Z,32.20
2022-10-26T15:19:09.766Z,32.50
2022-10-26T15:21:47.716Z,31.50
2022-10-26T15:24:24.822Z,32.60
2022-10-26T15:26:52.348Z,30.00
2022-10-26T15:29:44.980Z,31.90
2022-10-26T15:32:33.085Z,31.40
2022-10-26T15:35:28.871Z,30.80
2022-10-26T15:37:57.618Z,29.60
2022-10-26T15:43:00.191Z,30.30
2022-10-26T15:45:34.063Z,31.30
2022-10-26T15:48:18.399Z,31.80
2022-10-26T15:50:45.482Z,33.60
2022-10-26T15:53:19.439Z,33.70
2022-10-26T15:55:47.282Z,33.10
2022-10-26T15:58:15.589Z,34.50
2022-10-26T16:00:42.822Z,33.30
2022-10-26T16:03:15.324Z,33.60
2022-10-26T16:05:42.572Z,34.30
2022-10-26T16:08:17.766Z,34.10
2022-10-26T16:10:46.549Z,33.50
2022-10-26T16:13:15.141Z,35.90
2022-10-26T16:15:42.717Z,39.70
2022-10-26T16:18:09.902Z,41.70
2022-10-26T16:20:37.579Z,42.30
2022-10-26T16:23:07.579Z,42.40
2022-10-26T16:25:40.800Z,42.40
2022-10-26T16:28:09.554Z,43.50
2022-10-26T16:30:36.994Z,42.40
2022-10-26T16:33:04.187Z,41.00
2022-10-26T16:35:31.367Z,41.10
2022-10-26T16:37:58.475Z,41.70
2022-10-26T16:40:26.697Z,43.20
2022-10-26T16:42:53.897Z,44.40
2022-10-26T16:45:21.007Z,48.60
2022-10-26T16:47:48.441Z,49.70
2022-10-26T16:50:16.046Z,50.90
2022-10-26T16:52:43.223Z,51.20
2022-10-26T16:55:10.435Z,50.70
2022-10-26T16:57:37.773Z,50.30
2022-10-26T17:00:06.559Z,47.70
2022-10-26T17:02:33.840Z,46.80
2022-10-26T17:05:04.262Z,48.10
2022-10-26T17:07:34.325Z,48.90
2022-10-26T17:10:01.520Z,49.20
2022-10-26T17:12:28.713Z,51.30
2022-10-26T17:14:58.572Z,53.30
2022-10-26T17:17:25.879Z,53.80
2022-10-26T17:19:53.181Z,55.70
2022-10-26T17:22:20.290Z,52.30
2022-10-26T17:24:47.405Z,50.80
2022-10-26T17:27:14.587Z,50.50
2022-10-26T17:29:42.040Z,50.30
2022-10-26T17:32:09.319Z,67.30
2022-10-26T17:34:36.420Z,44.00
2022-10-26T17:37:03.650Z,44.20
2022-10-26T17:39:30.826Z,43.30
2022-10-26T17:41:59.283Z,43.80
2022-10-26T17:44:26.470Z,44.80
2022-10-26T17:46:53.648Z,45.50
2022-10-26T17:49:24.828Z,48.20
2022-10-26T17:51:54.191Z,49.50
2022-10-26T17:54:21.633Z,52.20
2022-10-26T17:56:49.135Z,50.20
2022-10-26T17:59:17.649Z,49.80
2022-10-26T18:01:45.055Z,49.40
2022-10-26T18:04:12.302Z,50.50
2022-10-26T18:06:39.684Z,50.50
2022-10-26T18:09:06.780Z,49.30
2022-10-26T18:11:34.088Z,49.60
2022-10-26T18:14:01.170Z,47.50
2022-10-26T18:16:29.120Z,46.80
2022-10-26T18:19:01.886Z,47.70
2022-10-26T18:21:34.460Z,47.40
2022-10-26T18:24:01.624Z,47.60
2022-10-26T18:26:30.143Z,46.40
2022-10-26T18:28:59.032Z,47.00
2022-10-26T18:31:27.288Z,43.70
2022-10-26T18:33:56.334Z,42.90
2022-10-26T18:36:23.601Z,45.70
2022-10-26T18:38:50.774Z,47.20
2022-10-26T18:41:19.950Z,48.00
2022-10-26T18:43:51.888Z,49.60
2022-10-26T18:46:24.306Z,50.00
2022-10-26T18:48:55.648Z,50.80
2022-10-26T18:51:25.374Z,49.90
2022-10-26T18:53:52.622Z,51.00
2022-10-26T18:56:21.723Z,51.10
2022-10-26T18:58:50.607Z,50.60
2022-10-26T19:01:23.771Z,48.00
2022-10-26T19:04:02.692Z,47.70
2022-10-26T19:06:35.078Z,47.00
2022-10-26T19:09:03.234Z,48.90
2022-10-26T19:11:31.640Z,48.90
2022-10-26T19:13:59.079Z,49.10
2022-10-26T19:19:17.021Z,51.00
2022-10-26T19:21:46.244Z,50.60
2022-10-26T19:24:19.059Z,50.30
2022-10-26T19:26:48.174Z,51.30
2022-10-26T19:29:16.992Z,54.20
2022-10-26T19:31:45.674Z,54.40
2022-10-26T19:34:14.599Z,54.00
2022-10-26T19:36:44.939Z,50.10
2022-10-26T19:39:16.905Z,48.50
2022-10-26T19:41:45.740Z,46.70
2022-10-26T19:44:14.443Z,44.40
2022-10-26T19:46:43.269Z,43.40
2022-10-26T19:49:12.524Z,43.60
2022-10-26T19:51:39.781Z,45.00
2022-10-26T19:54:07.567Z,48.70
2022-10-26T19:56:36.464Z,51.20
2022-10-26T19:59:03.915Z,52.00
2022-10-26T20:01:31.650Z,53.20
2022-10-26T20:03:58.795Z,54.70
2022-10-26T20:06:26.076Z,54.90
2022-10-26T20:08:53.389Z,55.40
2022-10-26T20:11:20.827Z,53.80
2022-10-26T20:13:48.223Z,53.10
2022-10-26T20:16:16.928Z,55.50
2022-10-26T20:18:47.860Z,54.60
2022-10-26T20:21:17.477Z,54.70
2022-10-26T20:23:45.541Z,54.90
2022-10-26T20:26:18.984Z,54.80
2022-10-26T20:28:49.065Z,55.60
2022-10-26T20:31:16.571Z,57.10
2022-10-26T20:33:43.702Z,57.90
2022-10-26T20:36:11.095Z,58.30
2022-10-26T20:38:39.416Z,61.00
2022-10-26T20:41:12.074Z,59.00
2022-10-26T20:43:40.513Z,59.30
2022-10-26T20:46:11.278Z,59.10
2022-10-26T20:48:38.852Z,57.60
2022-10-26T20:51:19.666Z,59.50
2022-10-26T20:53:53.710Z,57.90
2022-10-26T20:56:25.896Z,55.70
2022-10-26T20:58:57.772Z,55.50
2022-10-26T21:01:33.585Z,56.90
2022-10-26T21:04:03.280Z,58.40
2022-10-26T21:06:39.870Z,61.20
2022-10-26T21:09:08.230Z,65.10
2022-10-26T21:11:35.732Z,67.10
2022-10-26T21:14:05.138Z,65.50
2022-10-26T21:16:32.440Z,65.10
2022-10-26T21:19:00.381Z,66.00
2022-10-26T21:21:27.744Z,66.10
2022-10-26T21:23:54.984Z,65.30
2022-10-26T21:26:22.192Z,66.10
2022-10-26T21:28:49.626Z,70.90
2022-10-26T21:31:18.727Z,73.10
2022-10-26T21:33:46.833Z,79.60
2022-10-26T21:36:14.980Z,92.20
2022-10-26T21:38:44.233Z,91.10
2022-10-26T21:41:15.337Z,92.10
2022-10-26T21:43:46.012Z,94.20
2022-10-26T21:46:15.051Z,95.30
2022-10-26T21:48:43.017Z,97.10
2022-10-26T21:51:18.566Z,98.90
2022-10-26T21:53:47.460Z,98.80
2022-10-26T21:56:17.799Z,99.90
2022-10-26T21:58:45.783Z,97.00
2022-10-26T22:01:15.723Z,96.80
2022-10-26T22:03:43.714Z,98.70
2022-10-26T22:06:12.850Z,99.90
2022-10-26T22:08:40.371Z,99.90
2022-10-26T22:11:16.347Z,99.90
2022-10-26T22:13:44.650Z,99.90
2022-10-26T22:16:19.527Z,99.90
2022-10-26T22:18:47.975Z,99.90
2022-10-26T22:21:16.655Z,99.90
2022-10-26T22:23:44.008Z,99.90
2022-10-26T22:26:17.162Z,99.90
2022-10-26T22:28:45.793Z,99.90
2022-10-26T22:31:19.259Z,99.90
2022-10-26T22:33:50.788Z,99.90
2022-10-26T22:36:18.044Z,99.90
2022-10-26T22:38:45.453Z,99.90
2022-10-26T22:41:12.873Z,99.90
2022-10-26T22:43:40.042Z,99.90
2022-10-26T22:46:15.699Z,99.90
2022-10-26T22:48:45.441Z,99.90
2022-10-26T22:51:19.803Z,99.90
2022-10-26T22:53:50.999Z,99.90
2022-10-26T22:56:18.158Z,99.90
2022-10-26T22:58:45.321Z,99.90
2022-10-26T23:01:17.800Z,99.90
2022-10-26T23:03:45.440Z,99.90
2022-10-26T23:06:15.238Z,99.90
2022-10-26T23:08:43.064Z,99.90
2022-10-26T23:11:13.342Z,99.90
2022-10-26T23:13:40.779Z,99.90
2022-10-26T23:16:17.940Z,99.90
2022-10-26T23:18:45.404Z,99.90
2022-10-26T23:21:13.666Z,99.90
2022-10-26T23:23:41.568Z,99.90
2022-10-26T23:26:14.556Z,99.90
2022-10-26T23:28:42.643Z,99.90
2022-10-26T23:31:16.285Z,99.90
2022-10-26T23:33:44.156Z,99.90
2022-10-26T23:36:11.486Z,99.90
2022-10-26T23:38:38.676Z,99.90
2022-10-26T23:41:08.225Z,99.90
2022-10-26T23:43:37.978Z,99.90
2022-10-26T23:46:05.589Z,99.90
2022-10-26T23:48:32.750Z,99.90
2022-10-26T23:50:59.901Z,99.90
2022-10-26T23:53:27.185Z,99.90
2022-10-26T23:55:54.431Z,99.90
2022-10-26T23:58:21.726Z,99.90
